createdAt,value
2023-05-06T00:00:40.182Z,14.60
2023-05-06T00:03:19.661Z,14.61
2023-05-06T00:05:51.838Z,14.68
2023-05-06T00:08:24.269Z,14.69
2023-05-06T00:10:57.026Z,14.72
2023-05-06T00:13:30.045Z,14.75
2023-05-06T00:16:02.511Z,14.73
2023-05-06T00:18:34.975Z,14.72
2023-05-06T00:21:07.466Z,14.74
2023-05-06T00:23:39.713Z,14.66
2023-05-06T00:26:12.443Z,14.69
2023-05-06T00:28:45.211Z,14.73
2023-05-06T00:31:17.783Z,14.59
2023-05-06T00:33:50.385Z,14.74
2023-05-06T00:36:22.781Z,14.79
2023-05-06T00:38:54.965Z,14.79
2023-05-06T00:41:31.665Z,14.81
2023-05-06T00:44:06.953Z,14.72
2023-05-06T00:46:39.395Z,14.72
2023-05-06T00:49:13.150Z,14.64
2023-05-06T00:51:45.664Z,14.59
2023-05-06T00:54:19.862Z,14.67
2023-05-06T00:56:52.127Z,14.69
2023-05-06T00:59:24.674Z,14.70
2023-05-06T01:01:58.275Z,14.65
2023-05-06T01:04:31.365Z,14.70
2023-05-06T01:07:14.470Z,14.69
2023-05-06T01:09:55.413Z,14.53
2023-05-06T01:12:33.634Z,14.52
2023-05-06T01:15:12.855Z,14.48
2023-05-06T01:17:50.215Z,14.57
2023-05-06T01:20:25.307Z,14.72
2023-05-06T01:22:58.200Z,14.48
2023-05-06T01:25:32.336Z,14.49
2023-05-06T01:28:04.668Z,14.32
2023-05-06T01:30:54.810Z,14.48
2023-05-06T01:33:38.273Z,14.51
2023-05-06T01:36:17.703Z,14.65
2023-05-06T01:38:56.124Z,14.60
2023-05-06T01:41:29.502Z,14.47
2023-05-06T01:44:03.311Z,14.40
2023-05-06T01:46:36.725Z,14.29
2023-05-06T01:49:11.617Z,14.28
2023-05-06T01:51:48.305Z,14.43
2023-05-06T01:54:20.706Z,14.47
2023-05-06T01:56:53.993Z,14.43
2023-05-06T01:59:26.810Z,14.19
2023-05-06T02:02:00.331Z,14.07
2023-05-06T02:04:33.090Z,14.15
2023-05-06T02:07:05.701Z,14.19
2023-05-06T02:09:38.128Z,14.12
2023-05-06T02:12:10.428Z,14.25
2023-05-06T02:14:43.086Z,14.05
2023-05-06T02:17:15.745Z,14.02
2023-05-06T02:19:48.304Z,14.16
2023-05-06T02:22:20.387Z,14.11
2023-05-06T02:24:52.847Z,14.17
2023-05-06T02:27:25.240Z,14.19
2023-05-06T02:29:59.017Z,14.24
2023-05-06T02:32:31.898Z,14.30
2023-05-06T02:35:04.891Z,14.12
2023-05-06T02:37:37.141Z,14.29
2023-05-06T02:40:11.025Z,14.25
2023-05-06T02:42:44.053Z,14.11
2023-05-06T02:45:16.967Z,14.24
2023-05-06T02:47:49.176Z,14.34
2023-05-06T02:50:21.476Z,14.28
2023-05-06T02:52:53.709Z,14.24
2023-05-06T02:55:26.000Z,14.27
2023-05-06T02:57:59.086Z,14.21
2023-05-06T03:00:32.238Z,14.24
2023-05-06T03:03:05.119Z,14.14
2023-05-06T03:05:37.606Z,14.10
2023-05-06T03:08:10.299Z,14.18
2023-05-06T03:10:43.065Z,14.28
2023-05-06T03:13:15.226Z,14.20
2023-05-06T03:15:52.165Z,14.13
2023-05-06T03:18:24.960Z,14.24
2023-05-06T03:20:57.724Z,14.26
2023-05-06T03:23:32.110Z,14.06
2023-05-06T03:26:05.696Z,13.96
2023-05-06T03:28:38.544Z,14.06
2023-05-06T03:31:11.442Z,14.18
2023-05-06T03:33:44.826Z,14.21
2023-05-06T03:36:18.010Z,14.07
2023-05-06T03:38:51.776Z,14.12
2023-05-06T03:41:24.660Z,14.20
2023-05-06T03:43:57.297Z,13.97
2023-05-06T03:46:32.719Z,14.07
2023-05-06T03:49:05.992Z,13.94
2023-05-06T03:51:38.749Z,13.95
2023-05-06T03:54:11.464Z,13.85
2023-05-06T03:56:46.572Z,13.89
2023-05-06T03:59:21.167Z,13.65
2023-05-06T04:01:53.781Z,13.73
2023-05-06T04:04:27.597Z,13.71
2023-05-06T04:07:04.470Z,13.77
2023-05-06T04:09:44.251Z,13.76
2023-05-06T04:12:16.902Z,13.80
2023-05-06T04:14:51.362Z,13.86
2023-05-06T04:17:24.079Z,13.82
2023-05-06T04:19:57.687Z,13.89
2023-05-06T04:22:30.654Z,13.83
2023-05-06T04:25:06.813Z,13.85
2023-05-06T04:27:40.882Z,13.91
2023-05-06T04:30:15.523Z,13.76
2023-05-06T04:32:50.077Z,13.66
2023-05-06T04:35:23.707Z,13.76
2023-05-06T04:38:00.504Z,13.77
2023-05-06T04:40:36.663Z,13.62
2023-05-06T04:43:11.939Z,13.74
2023-05-06T04:45:51.428Z,13.70
2023-05-06T04:48:29.110Z,13.62
2023-05-06T04:51:04.392Z,13.63
2023-05-06T04:53:36.919Z,13.54
2023-05-06T04:56:10.187Z,13.65
2023-05-06T04:58:42.956Z,13.68
2023-05-06T05:01:16.874Z,13.61
2023-05-06T05:03:50.126Z,13.70
2023-05-06T05:06:22.976Z,13.73
2023-05-06T05:08:55.927Z,13.80
2023-05-06T05:11:29.253Z,13.73
2023-05-06T05:14:04.623Z,13.74
2023-05-06T05:16:37.823Z,13.66
2023-05-06T05:19:13.908Z,13.55
2023-05-06T05:21:47.240Z,13.66
2023-05-06T05:24:19.905Z,13.70
2023-05-06T05:26:52.175Z,13.72
2023-05-06T05:29:24.600Z,13.77
2023-05-06T05:31:59.954Z,13.74
2023-05-06T05:34:34.095Z,13.60
2023-05-06T05:37:06.773Z,13.54
2023-05-06T05:39:39.640Z,13.65
2023-05-06T05:42:12.118Z,13.66
2023-05-06T05:44:44.779Z,13.65
2023-05-06T05:47:17.804Z,13.69
2023-05-06T05:49:50.831Z,13.58
2023-05-06T05:52:23.962Z,13.49
2023-05-06T05:54:56.768Z,13.58
2023-05-06T05:57:30.943Z,13.59
2023-05-06T06:00:03.500Z,13.43
2023-05-06T06:02:37.680Z,13.61
2023-05-06T06:05:11.533Z,13.64
2023-05-06T06:07:44.265Z,13.67
2023-05-06T06:10:16.814Z,13.58
2023-05-06T06:12:49.175Z,13.64
2023-05-06T06:15:24.072Z,13.71
2023-05-06T06:17:57.899Z,13.71
2023-05-06T06:20:31.744Z,13.70
2023-05-06T06:23:04.396Z,13.71
2023-05-06T06:25:36.740Z,13.66
2023-05-06T06:28:09.120Z,13.66
2023-05-06T06:30:42.180Z,13.64
2023-05-06T06:33:14.408Z,13.72
2023-05-06T06:35:46.577Z,13.69
2023-05-06T06:38:18.831Z,13.62
2023-05-06T06:40:51.255Z,13.60
2023-05-06T06:43:24.733Z,13.68
2023-05-06T06:46:07.533Z,13.67
2023-05-06T06:48:39.877Z,13.66
2023-05-06T06:51:12.196Z,13.72
2023-05-06T06:53:44.666Z,13.57
2023-05-06T06:56:17.147Z,13.58
2023-05-06T06:58:50.742Z,13.68
2023-05-06T07:01:24.377Z,13.36
2023-05-06T07:03:56.652Z,13.46
2023-05-06T07:06:28.940Z,13.58
2023-05-06T07:09:01.197Z,13.60
2023-05-06T07:11:33.717Z,13.65
2023-05-06T07:14:06.019Z,13.68
2023-05-06T07:16:38.188Z,13.54
2023-05-06T07:19:10.370Z,13.65
2023-05-06T07:21:42.633Z,13.66
2023-05-06T07:24:15.270Z,13.65
2023-05-06T07:26:48.231Z,13.52
2023-05-06T07:29:20.703Z,13.62
2023-05-06T07:31:52.935Z,13.67
2023-05-06T07:34:25.089Z,13.75
2023-05-06T07:36:57.390Z,13.52
2023-05-06T07:39:29.650Z,13.63
2023-05-06T07:42:02.724Z,13.70
2023-05-06T07:44:36.390Z,13.70
2023-05-06T07:47:08.602Z,13.66
2023-05-06T07:49:40.828Z,13.70
2023-05-06T07:52:13.424Z,13.63
2023-05-06T07:54:45.583Z,13.67
2023-05-06T07:57:18.371Z,13.59
2023-05-06T07:59:53.000Z,13.68
2023-05-06T08:02:23.795Z,13.68
2023-05-06T08:04:56.262Z,13.67
2023-05-06T08:07:28.563Z,13.65
2023-05-06T08:10:01.018Z,13.68
2023-05-06T08:12:33.657Z,13.64
2023-05-06T08:15:07.108Z,13.58
2023-05-06T08:17:39.577Z,13.47
2023-05-06T08:20:13.385Z,13.57
2023-05-06T08:22:45.675Z,13.62
2023-05-06T08:25:17.982Z,13.65
2023-05-06T08:27:50.244Z,13.55
2023-05-06T08:30:22.378Z,13.48
2023-05-06T08:32:55.063Z,13.57
2023-05-06T08:35:27.237Z,13.65
2023-05-06T08:37:59.416Z,13.72
2023-05-06T08:40:33.970Z,13.71
2023-05-06T08:43:08.203Z,13.71
2023-05-06T08:45:41.396Z,13.67
2023-05-06T08:48:13.818Z,13.67
2023-05-06T08:50:46.483Z,13.64
2023-05-06T08:53:19.298Z,13.49
2023-05-06T08:55:53.809Z,13.59
2023-05-06T08:58:27.794Z,13.66
2023-05-06T09:01:00.945Z,13.71
2023-05-06T09:03:33.340Z,13.73
2023-05-06T09:06:06.039Z,13.71
2023-05-06T09:08:38.608Z,13.72
2023-05-06T09:11:25.046Z,13.74
2023-05-06T09:14:11.298Z,13.79
2023-05-06T09:16:45.826Z,13.63
2023-05-06T09:19:20.181Z,13.62
2023-05-06T09:21:53.249Z,13.71
2023-05-06T09:24:26.603Z,13.75
2023-05-06T09:26:59.299Z,13.55
2023-05-06T09:29:31.696Z,13.50
2023-05-06T09:32:09.288Z,13.49
2023-05-06T09:34:46.463Z,13.48
2023-05-06T09:37:20.523Z,13.60
2023-05-06T09:39:54.598Z,13.70
2023-05-06T09:42:29.018Z,13.73
2023-05-06T09:45:02.852Z,13.81
2023-05-06T09:47:38.199Z,13.71
2023-05-06T09:50:14.791Z,13.79
2023-05-06T09:52:49.299Z,13.79
2023-05-06T09:55:23.618Z,13.82
2023-05-06T09:57:56.120Z,13.86
2023-05-06T10:00:30.085Z,13.68
2023-05-06T10:03:03.788Z,13.74
2023-05-06T10:05:36.679Z,13.80
2023-05-06T10:08:10.572Z,13.85
2023-05-06T10:10:45.227Z,13.81
2023-05-06T10:13:18.226Z,13.78
2023-05-06T10:15:52.035Z,13.79
2023-05-06T10:18:27.783Z,13.82
2023-05-06T10:21:02.809Z,13.65
2023-05-06T10:23:44.461Z,13.73
2023-05-06T10:26:20.935Z,13.65
2023-05-06T10:28:55.011Z,13.47
2023-05-06T10:31:28.316Z,13.40
2023-05-06T10:34:06.221Z,13.40
2023-05-06T10:36:40.631Z,13.57
2023-05-06T10:39:14.346Z,13.42
2023-05-06T10:41:46.879Z,13.44
2023-05-06T10:44:19.666Z,13.45
2023-05-06T10:47:09.472Z,13.55
2023-05-06T10:49:41.769Z,13.50
2023-05-06T10:52:17.064Z,13.51
2023-05-06T10:54:52.937Z,13.43
2023-05-06T10:57:27.399Z,13.24
2023-05-06T10:59:59.996Z,13.18
2023-05-06T11:02:33.024Z,13.25
2023-05-06T11:05:07.629Z,13.18
2023-05-06T11:07:39.795Z,13.08
2023-05-06T11:10:13.508Z,13.12
2023-05-06T11:12:50.296Z,13.18
2023-05-06T11:15:40.506Z,13.13
2023-05-06T11:18:45.830Z,13.26
2023-05-06T11:21:39.184Z,13.32
2023-05-06T11:24:15.706Z,13.17
2023-05-06T11:26:48.702Z,13.25
2023-05-06T11:29:21.477Z,13.16
2023-05-06T11:31:54.828Z,13.19
2023-05-06T11:34:30.225Z,13.15
2023-05-06T11:37:04.210Z,13.06
2023-05-06T11:39:40.706Z,13.17
2023-05-06T11:42:13.729Z,13.26
2023-05-06T11:44:45.988Z,13.08
2023-05-06T11:47:18.216Z,13.13
2023-05-06T11:49:54.836Z,13.15
2023-05-06T11:52:27.078Z,13.06
2023-05-06T11:54:59.346Z,13.09
2023-05-06T11:57:32.727Z,13.14
2023-05-06T12:00:05.560Z,13.25
2023-05-06T12:02:44.741Z,13.26
2023-05-06T12:05:17.354Z,13.24
2023-05-06T12:07:49.804Z,13.28
2023-05-06T12:10:22.575Z,13.28
2023-05-06T12:12:55.450Z,13.20
2023-05-06T12:15:28.030Z,12.95
2023-05-06T12:18:00.736Z,12.93
2023-05-06T12:20:33.222Z,13.00
2023-05-06T12:23:12.602Z,13.00
2023-05-06T12:25:45.840Z,13.02
2023-05-06T12:28:19.141Z,13.01
2023-05-06T12:30:51.502Z,13.03
2023-05-06T12:33:24.308Z,13.09
2023-05-06T12:36:07.321Z,13.04
2023-05-06T12:38:39.752Z,13.06
2023-05-06T12:41:11.980Z,13.01
2023-05-06T12:43:44.330Z,13.02
2023-05-06T12:46:18.415Z,13.02
2023-05-06T12:49:01.471Z,12.93
2023-05-06T12:51:34.203Z,12.99
2023-05-06T12:54:26.897Z,12.93
2023-05-06T12:56:59.197Z,12.92
2023-05-06T12:59:31.740Z,13.02
2023-05-06T13:02:04.338Z,13.02
2023-05-06T13:04:36.313Z,13.08
2023-05-06T13:07:08.632Z,13.18
2023-05-06T13:09:40.997Z,13.25
2023-05-06T13:12:13.508Z,13.29
2023-05-06T13:14:46.001Z,13.18
2023-05-06T13:17:18.286Z,13.16
2023-05-06T13:19:51.248Z,13.24
2023-05-06T13:22:24.378Z,13.15
2023-05-06T13:24:56.777Z,13.19
2023-05-06T13:27:32.273Z,13.22
2023-05-06T13:30:05.033Z,13.23
2023-05-06T13:32:37.450Z,13.10
2023-05-06T13:35:11.151Z,12.97
2023-05-06T13:37:43.607Z,13.00
2023-05-06T13:40:16.774Z,13.07
2023-05-06T13:42:49.106Z,13.01
2023-05-06T13:45:21.363Z,12.91
2023-05-06T13:47:54.313Z,13.01
2023-05-06T13:50:26.732Z,13.16
2023-05-06T13:52:59.815Z,13.19
2023-05-06T13:55:32.155Z,13.13
2023-05-06T13:58:05.472Z,13.03
2023-05-06T14:00:38.431Z,13.16
2023-05-06T14:03:10.892Z,13.17
2023-05-06T14:05:43.295Z,13.16
2023-05-06T14:08:15.430Z,13.03
2023-05-06T14:10:47.958Z,12.84
2023-05-06T14:13:20.538Z,12.82
2023-05-06T14:15:53.107Z,12.85
2023-05-06T14:18:26.611Z,12.89
2023-05-06T14:20:59.516Z,12.78
2023-05-06T14:23:32.563Z,13.00
2023-05-06T14:26:05.598Z,13.05
2023-05-06T14:28:37.924Z,12.94
2023-05-06T14:31:10.533Z,13.12
2023-05-06T14:33:42.691Z,13.17
2023-05-06T14:36:20.905Z,13.22
2023-05-06T14:38:53.223Z,13.22
2023-05-06T14:41:25.893Z,13.22
2023-05-06T14:44:00.848Z,13.40
2023-05-06T14:46:33.334Z,13.36
2023-05-06T14:49:05.796Z,13.42
2023-05-06T14:51:39.436Z,13.45
2023-05-06T14:54:11.993Z,13.45
2023-05-06T14:56:47.001Z,13.46
2023-05-06T14:59:20.940Z,13.11
2023-05-06T15:01:53.730Z,13.10
2023-05-06T15:04:25.933Z,13.27
2023-05-06T15:06:58.294Z,13.34
2023-05-06T15:09:30.935Z,13.40
2023-05-06T15:12:03.409Z,13.40
2023-05-06T15:14:35.837Z,13.41
2023-05-06T15:17:08.369Z,13.44
2023-05-06T15:19:40.578Z,13.44
2023-05-06T15:22:13.054Z,13.41
2023-05-06T15:24:46.577Z,13.41
2023-05-06T15:27:18.893Z,13.41
2023-05-06T15:29:51.091Z,13.51
2023-05-06T15:32:23.640Z,13.48
2023-05-06T15:34:55.758Z,13.49
2023-05-06T15:37:28.167Z,13.35
2023-05-06T15:40:00.554Z,13.37
2023-05-06T15:42:33.778Z,13.41
2023-05-06T15:45:07.410Z,13.42
2023-05-06T15:47:39.609Z,13.24
2023-05-06T15:50:21.310Z,13.30
2023-05-06T15:53:05.094Z,13.14
2023-05-06T15:55:45.568Z,13.17
2023-05-06T15:58:25.429Z,13.17
2023-05-06T16:00:57.810Z,13.07
2023-05-06T16:03:30.738Z,13.07
2023-05-06T16:06:03.154Z,13.09
2023-05-06T16:08:35.424Z,13.00
2023-05-06T16:11:07.733Z,12.87
2023-05-06T16:13:40.378Z,12.99
2023-05-06T16:16:12.710Z,13.06
2023-05-06T16:18:44.921Z,12.94
2023-05-06T16:21:17.316Z,13.07
2023-05-06T16:23:49.979Z,13.11
2023-05-06T16:26:22.720Z,13.11
2023-05-06T16:28:55.207Z,13.12
2023-05-06T16:31:27.722Z,13.17
2023-05-06T16:34:00.364Z,13.21
2023-05-06T16:36:32.436Z,13.22
2023-05-06T16:39:06.271Z,13.20
2023-05-06T16:41:38.564Z,13.22
2023-05-06T16:44:10.935Z,13.23
2023-05-06T16:46:43.317Z,13.24
2023-05-06T16:49:15.744Z,13.23
2023-05-06T16:51:47.924Z,13.21
2023-05-06T16:54:20.181Z,13.22
2023-05-06T16:56:52.982Z,13.20
2023-05-06T16:59:25.969Z,13.19
2023-05-06T17:01:58.342Z,13.17
2023-05-06T17:04:30.707Z,13.15
2023-05-06T17:07:04.133Z,13.09
2023-05-06T17:09:36.224Z,13.06
2023-05-06T17:12:08.989Z,12.97
2023-05-06T17:14:42.869Z,13.12
2023-05-06T17:17:15.175Z,13.17
2023-05-06T17:19:47.337Z,13.13
2023-05-06T17:22:20.691Z,13.13
2023-05-06T17:24:53.500Z,13.07
2023-05-06T17:27:26.267Z,13.03
2023-05-06T17:29:58.514Z,13.03
2023-05-06T17:32:31.292Z,13.08
2023-05-06T17:35:03.784Z,13.00
2023-05-06T17:37:36.215Z,12.95
2023-05-06T17:40:10.541Z,12.83
2023-05-06T17:42:42.948Z,12.80
2023-05-06T17:45:15.825Z,12.84
2023-05-06T17:47:48.077Z,12.73
2023-05-06T17:50:20.836Z,12.71
2023-05-06T17:52:54.552Z,12.84
2023-05-06T17:55:27.273Z,12.85
2023-05-06T17:57:59.987Z,12.74
2023-05-06T18:00:32.363Z,12.73
2023-05-06T18:03:04.827Z,12.80
2023-05-06T18:05:37.162Z,12.81
2023-05-06T18:08:09.634Z,12.74
2023-05-06T18:10:42.014Z,12.83
2023-05-06T18:13:14.459Z,12.88
2023-05-06T18:15:47.025Z,12.90
2023-05-06T18:18:19.335Z,12.87
2023-05-06T18:20:52.019Z,12.88
2023-05-06T18:23:24.675Z,12.69
2023-05-06T18:25:57.302Z,12.84
2023-05-06T18:28:29.983Z,12.80
2023-05-06T18:31:02.498Z,12.82
2023-05-06T18:33:35.620Z,12.83
2023-05-06T18:36:10.102Z,12.81
2023-05-06T18:38:42.567Z,12.77
2023-05-06T18:41:15.065Z,12.67
2023-05-06T18:43:47.128Z,12.75
2023-05-06T18:46:19.598Z,12.65
2023-05-06T18:48:51.833Z,12.52
2023-05-06T18:51:24.515Z,12.60
2023-05-06T18:53:56.818Z,12.55
2023-05-06T18:56:29.374Z,12.64
2023-05-06T18:59:02.184Z,12.73
2023-05-06T19:01:34.850Z,12.74
2023-05-06T19:04:07.494Z,12.75
2023-05-06T19:06:39.938Z,12.79
2023-05-06T19:09:12.358Z,12.76
2023-05-06T19:11:44.690Z,12.75
2023-05-06T19:14:17.262Z,12.76
2023-05-06T19:16:49.862Z,12.75
2023-05-06T19:19:22.212Z,12.77
2023-05-06T19:21:54.789Z,12.80
2023-05-06T19:24:27.143Z,12.75
2023-05-06T19:26:59.713Z,12.74
2023-05-06T19:29:32.904Z,12.77
2023-05-06T19:32:05.725Z,12.69
2023-05-06T19:34:37.992Z,12.60
2023-05-06T19:37:10.797Z,12.66
2023-05-06T19:39:42.999Z,12.72
2023-05-06T19:42:15.938Z,12.71
2023-05-06T19:44:50.310Z,12.71
2023-05-06T19:47:22.535Z,12.73
2023-05-06T19:49:54.932Z,12.65
2023-05-06T19:52:30.606Z,12.75
2023-05-06T19:55:03.456Z,12.75
2023-05-06T19:57:37.462Z,12.71
2023-05-06T20:00:14.008Z,12.64
2023-05-06T20:02:46.609Z,12.66
2023-05-06T20:05:19.271Z,12.67
2023-05-06T20:07:51.982Z,12.68
2023-05-06T20:10:24.655Z,12.69
2023-05-06T20:12:58.055Z,12.70
2023-05-06T20:15:31.086Z,12.67
2023-05-06T20:18:03.617Z,12.70
2023-05-06T20:20:36.118Z,12.73
2023-05-06T20:23:08.905Z,12.70
2023-05-06T20:25:41.166Z,12.66
2023-05-06T20:28:13.419Z,12.67
2023-05-06T20:30:45.838Z,12.70
2023-05-06T20:33:18.311Z,12.70
2023-05-06T20:35:51.045Z,12.67
2023-05-06T20:38:23.450Z,12.68
2023-05-06T20:40:55.802Z,12.69
2023-05-06T20:43:28.121Z,12.71
2023-05-06T20:46:00.463Z,12.73
2023-05-06T20:48:32.808Z,12.73
2023-05-06T20:51:05.347Z,12.77
2023-05-06T20:53:38.758Z,12.71
2023-05-06T20:56:20.644Z,12.75
2023-05-06T20:58:53.703Z,12.72
2023-05-06T21:01:27.667Z,12.68
2023-05-06T21:04:01.519Z,12.69
2023-05-06T21:06:33.814Z,12.68
2023-05-06T21:09:06.876Z,12.61
2023-05-06T21:11:39.321Z,12.63
2023-05-06T21:14:11.417Z,12.67
2023-05-06T21:16:43.816Z,12.64
2023-05-06T21:19:16.155Z,12.64
2023-05-06T21:21:48.647Z,12.61
2023-05-06T21:24:20.896Z,12.62
2023-05-06T21:26:53.780Z,12.60
2023-05-06T21:29:26.139Z,12.59
2023-05-06T21:31:58.753Z,12.62
2023-05-06T21:34:31.434Z,12.57
2023-05-06T21:37:03.657Z,12.46
2023-05-06T21:39:36.036Z,12.48
2023-05-06T21:42:08.702Z,12.50
2023-05-06T21:44:40.848Z,12.46
2023-05-06T21:47:13.162Z,12.44
2023-05-06T21:49:45.241Z,12.48
2023-05-06T21:52:17.351Z,12.43
2023-05-06T21:54:49.917Z,12.46
2023-05-06T21:57:22.233Z,12.43
2023-05-06T21:59:54.717Z,12.46
2023-05-06T22:02:27.443Z,12.47
2023-05-06T22:04:59.915Z,12.47
2023-05-06T22:07:32.420Z,12.39
2023-05-06T22:10:04.810Z,12.47
2023-05-06T22:12:37.908Z,12.40
2023-05-06T22:15:13.955Z,12.49
2023-05-06T22:17:46.397Z,12.46
2023-05-06T22:20:21.432Z,12.44
2023-05-06T22:22:54.748Z,12.47
2023-05-06T22:25:27.252Z,12.47
2023-05-06T22:28:01.508Z,12.48
2023-05-06T22:30:34.812Z,12.40
2023-05-06T22:33:07.422Z,12.34
2023-05-06T22:35:39.985Z,12.32
2023-05-06T22:38:13.082Z,12.34
2023-05-06T22:40:45.539Z,12.32
2023-05-06T22:43:17.861Z,12.27
2023-05-06T22:45:49.975Z,12.32
2023-05-06T22:48:22.548Z,12.36
2023-05-06T22:50:56.405Z,12.32
2023-05-06T22:53:27.845Z,12.28
2023-05-06T22:56:02.966Z,12.30
2023-05-06T22:58:35.712Z,12.37
2023-05-06T23:01:08.891Z,12.36
2023-05-06T23:03:41.555Z,12.36
2023-05-06T23:06:14.378Z,12.35
2023-05-06T23:08:47.009Z,12.30
2023-05-06T23:11:19.403Z,12.27
2023-05-06T23:13:51.777Z,12.32
2023-05-06T23:16:24.047Z,12.27
2023-05-06T23:18:56.139Z,12.20
2023-05-06T23:21:28.801Z,12.31
2023-05-06T23:24:02.435Z,12.24
2023-05-06T23:26:34.947Z,12.30
2023-05-06T23:29:06.993Z,12.32
2023-05-06T23:31:39.362Z,12.31
2023-05-06T23:34:12.549Z,12.31
2023-05-06T23:36:46.777Z,12.32
2023-05-06T23:39:19.072Z,12.29
2023-05-06T23:41:51.467Z,12.25
2023-05-06T23:44:24.090Z,12.26
2023-05-06T23:46:56.454Z,12.30
2023-05-06T23:49:31.508Z,12.21
2023-05-06T23:52:04.735Z,12.22
2023-05-06T23:54:37.145Z,12.24
2023-05-06T23:57:09.442Z,12.20
2023-05-06T23:59:41.769Z,12.22
